Hauptseite
METAR-TAF:

METAR-TAF

Flughäfen :

Kunming, China

Flughafen Kunming-Changshui

Breite: 25-01N, Länge: 102-41E, Höhe: 1892 m

Beobachtung

Neuester Wetterbericht von vor 31 Minuten, um 20:00 UTC
Wind 14 kt aus Ost/Nordost
Temperatur 1°C
Luftfeuchtigkeit 69%
Luftdruck 1033 hPa
Sichtweite 10 km oder mehr
Aufgelockert bewölkt in der Höhe von 1600 ft
Geschlossene Wolkendecke in der Höhe von 3000 ft

METAR: ZPPP 182000Z 06007MPS 9999 SCT016 OVC030 01/M04 Q1033 NOSIG

Zeit: 04:31 (20:31 UTC)

Prognose

Neuester Wetterbericht von vor 7 Stunden und 19 Minuten, um 13:12 UTC
Gültige Prognose vom 18 um 18 UTC bis 19 um 18 UTC
Wind 12 kt aus Nordost
Sichtweite: 4000 m
Aufgelockert bewölkt in der Höhe von 500 ft
Geschlossene Wolkendecke in der Höhe von 3000 ft
feuchter Dunst

TAF: ZPPP 181312Z 1818/1918 04006MPS 4000 BR SCT005 OVC030 TX11/1908Z TN01/1823Z

Wetterbeobachtungen und Prognosen von mehr als 4000 Flughäfen (METAR und TAF Bericht).

Die verfügbaren Stationen werden durch gelbe und rote Markierungen auf der Karte dargestellt.

Führen Sie die Maus auf sie, um den Namen der Station zu sehen.

Darauf klicken, um die Beobachtung von Wetterbeobachtungen und Prognosen zu sehen.

Um die Karte zu ändern : klicken Sie auf den grünen Tasten mit einem schwarzen Kreuz Zum Vergrößern, auf den grünen Button mit einem Gedankenstrich zu verkleinern, oder auf die grünen Pfeile für benachbarte Karten.


METAR-TAF: